Time,TemperatureF,DewpointF,PressureIn,WindDirection,WindDirectionDegrees,WindSpeedMPH,WindSpeedGustMPH,Humidity,HourlyPrecipIn,Conditions,Clouds,dailyrainin,SoftwareType,DateUTC
2013-05-19 00:03:00,80.0,-99.9,30.03,ESE,102,12.0,16.0,-999,-99.99,,,-99.99,,2013-05-19 04:03:00,
2013-05-19 00:13:00,80.0,-99.9,30.02,ESE,112,12.0,16.0,-999,-99.99,,,-99.99,,2013-05-19 04:13:00,
2013-05-19 00:23:00,80.0,-99.9,30.02,ESE,118,12.0,14.0,-999,-99.99,,,-99.99,,2013-05-19 04:23:00,
2013-05-19 00:33:00,80.0,-99.9,30.02,SE,125,10.0,13.0,-999,-99.99,,,-99.99,,2013-05-19 04:33:00,
2013-05-19 00:42:00,79.0,-99.9,30.02,SE,124,10.0,12.0,-999,-99.99,,,-99.99,,2013-05-19 04:42:00,
2013-05-19 00:53:00,79.0,-99.9,30.01,ESE,122,10.0,13.0,-999,-99.99,,,-99.99,,2013-05-19 04:53:00,
2013-05-19 01:02:00,79.0,-99.9,30.01,SE,128,8.0,12.0,-999,-99.99,,,-99.99,,2013-05-19 05:02:00,
2013-05-19 01:12:00,79.0,-99.9,30.01,SE,127,9.0,11.0,-999,-99.99,,,-99.99,,2013-05-19 05:12:00,
2013-05-19 01:22:00,79.0,-99.9,30.01,SE,132,10.0,11.0,-999,-99.99,,,-99.99,,2013-05-19 05:22:00,
2013-05-19 01:32:00,79.0,-99.9,30.01,SE,125,10.0,12.0,-999,-99.99,,,-99.99,,2013-05-19 05:32:00,
2013-05-19 01:42:00,79.0,-99.9,30.01,ESE,110,7.0,9.0,-999,-99.99,,,-99.99,,2013-05-19 05:42:00,
2013-05-19 01:52:00,79.0,-99.9,30.00,ESE,102,10.0,13.0,-999,-99.99,,,-99.99,,2013-05-19 05:52:00,
2013-05-19 02:02:00,80.0,-99.9,30.00,ESE,105,9.0,15.0,-999,-99.99,,,-99.99,,2013-05-19 06:02:00,
2013-05-19 02:12:00,79.0,-99.9,30.00,ESE,105,9.0,12.0,-999,-99.99,,,-99.99,,2013-05-19 06:12:00,
2013-05-19 02:21:00,80.0,-99.9,29.99,ESE,120,9.0,12.0,-999,-99.99,,,-99.99,,2013-05-19 06:21:00,
2013-05-19 02:32:00,79.0,-99.9,29.99,SE,130,9.0,11.0,-999,-99.99,,,-99.99,,2013-05-19 06:32:00,
2013-05-19 02:42:00,79.0,-99.9,29.99,ESE,122,8.0,9.0,-999,-99.99,,,-99.99,,2013-05-19 06:42:00,
2013-05-19 02:52:00,79.0,-99.9,29.99,ESE,121,7.0,11.0,-999,-99.99,,,-99.99,,2013-05-19 06:52:00,
2013-05-19 03:01:00,78.0,-99.9,29.99,ESE,121,8.0,9.0,-999,-99.99,,,-99.99,,2013-05-19 07:01:00,
2013-05-19 03:11:00,78.0,-99.9,29.99,SE,139,7.0,8.0,-999,-99.99,,,-99.99,,2013-05-19 07:11:00,
2013-05-19 03:22:00,78.0,-99.9,29.99,SE,127,7.0,9.0,-999,-99.99,,,-99.99,,2013-05-19 07:22:00,
2013-05-19 03:32:00,78.0,-99.9,29.99,SE,132,7.0,8.0,-999,-99.99,,,-99.99,,2013-05-19 07:32:00,
2013-05-19 03:42:00,78.0,-99.9,29.99,SSE,149,6.0,8.0,-999,-99.99,,,-99.99,,2013-05-19 07:42:00,
2013-05-19 03:52:00,78.0,-99.9,29.98,SE,142,6.0,8.0,-999,-99.99,,,-99.99,,2013-05-19 07:52:00,
2013-05-19 04:02:00,78.0,-99.9,29.98,SE,130,6.0,8.0,-999,-99.99,,,-99.99,,2013-05-19 08:02:00,
2013-05-19 04:12:00,78.0,-99.9,29.98,SE,139,6.0,7.0,-999,-99.99,,,-99.99,,2013-05-19 08:12:00,
2013-05-19 04:22:00,78.0,-99.9,29.98,SE,132,6.0,7.0,-999,-99.99,,,-99.99,,2013-05-19 08:22:00,
2013-05-19 04:32:00,78.0,-99.9,29.98,SE,125,6.0,7.0,-999,-99.99,,,-99.99,,2013-05-19 08:32:00,
2013-05-19 04:42:00,78.0,-99.9,29.98,SE,134,6.0,7.0,-999,-99.99,,,-99.99,,2013-05-19 08:42:00,
2013-05-19 04:52:00,78.0,-99.9,29.99,SSE,149,6.0,7.0,-999,-99.99,,,-99.99,,2013-05-19 08:52:00,
2013-05-19 05:02:00,78.0,-99.9,29.99,SE,139,6.0,7.0,-999,-99.99,,,-99.99,,2013-05-19 09:02:00,
2013-05-19 05:12:00,77.0,-99.9,29.99,SE,142,6.0,8.0,-999,-99.99,,,-99.99,,2013-05-19 09:12:00,
2013-05-19 05:21:00,77.0,-99.9,29.99,SE,134,6.0,6.0,-999,-99.99,,,-99.99,,2013-05-19 09:21:00,
2013-05-19 05:33:00,78.0,-99.9,29.99,SE,124,4.0,5.0,-999,-99.99,,,-99.99,,2013-05-19 09:33:00,
2013-05-19 05:43:00,77.0,-99.9,30.00,SE,125,5.0,6.0,-999,-99.99,,,-99.99,,2013-05-19 09:43:00,
2013-05-19 05:53:00,78.0,-99.9,30.00,SE,135,6.0,7.0,-999,-99.99,,,-99.99,,2013-05-19 09:53:00,
2013-05-19 06:03:00,77.0,-99.9,30.00,SE,136,7.0,8.0,-999,-99.99,,,-99.99,,2013-05-19 10:03:00,
2013-05-19 06:13:00,78.0,-99.9,30.00,SE,125,6.0,8.0,-999,-99.99,,,-99.99,,2013-05-19 10:13:00,
2013-05-19 06:23:00,78.0,-99.9,30.01,SE,125,6.0,7.0,-999,-99.99,,,-99.99,,2013-05-19 10:23:00,
2013-05-19 06:33:00,78.0,-99.9,30.01,SE,127,6.0,7.0,-999,-99.99,,,-99.99,,2013-05-19 10:33:00,
2013-05-19 06:42:00,78.0,-99.9,30.01,SE,128,5.0,6.0,-999,-99.99,,,-99.99,,2013-05-19 10:42:00,
2013-05-19 06:53:00,78.0,-99.9,30.02,SE,126,6.0,7.0,-999,-99.99,,,-99.99,,2013-05-19 10:53:00,
2013-05-19 07:02:00,78.0,-99.9,30.02,SE,124,6.0,7.0,-999,-99.99,,,-99.99,,2013-05-19 11:02:00,
2013-05-19 07:12:00,78.0,-99.9,30.03,SE,127,6.0,9.0,-999,-99.99,,,-99.99,,2013-05-19 11:12:00,
2013-05-19 07:22:00,78.0,-99.9,30.03,ESE,123,6.0,7.0,-999,-99.99,,,-99.99,,2013-05-19 11:22:00,
2013-05-19 07:32:00,79.0,-99.9,30.03,SE,132,5.0,7.0,-999,-99.99,,,-99.99,,2013-05-19 11:32:00,
2013-05-19 07:42:00,79.0,-99.9,30.03,SE,136,7.0,8.0,-999,-99.99,,,-99.99,,2013-05-19 11:42:00,
2013-05-19 07:53:00,80.0,-99.9,30.03,SE,128,6.0,8.0,-999,-99.99,,,-99.99,,2013-05-19 11:53:00,
2013-05-19 08:01:00,80.0,-99.9,30.03,ESE,121,8.0,10.0,-999,-99.99,,,-99.99,,2013-05-19 12:01:00,
2013-05-19 08:12:00,80.0,-99.9,30.03,ESE,109,9.0,10.0,-999,-99.99,,,-99.99,,2013-05-19 12:12:00,
2013-05-19 08:22:00,81.0,-99.9,30.03,East,93,11.0,15.0,-999,-99.99,,,-99.99,,2013-05-19 12:22:00,
2013-05-19 08:32:00,81.0,-99.9,30.04,East,94,11.0,13.0,-999,-99.99,,,-99.99,,2013-05-19 12:32:00,
2013-05-19 08:42:00,81.0,-99.9,30.04,East,90,12.0,15.0,-999,-99.99,,,-99.99,,2013-05-19 12:42:00,
2013-05-19 08:52:00,80.0,-99.9,30.04,East,89,13.0,15.0,-999,-99.99,,,-99.99,,2013-05-19 12:52:00,
2013-05-19 09:01:00,81.0,-99.9,30.03,East,100,12.0,14.0,-999,-99.99,,,-99.99,,2013-05-19 13:01:00,
2013-05-19 09:11:00,81.0,-99.9,30.03,East,97,11.0,14.0,-999,-99.99,,,-99.99,,2013-05-19 13:11:00,
2013-05-19 09:21:00,81.0,-99.9,30.03,East,80,13.0,16.0,-999,-99.99,,,-99.99,,2013-05-19 13:21:00,
2013-05-19 09:32:00,81.0,-99.9,30.03,East,79,13.0,18.0,-999,-99.99,,,-99.99,,2013-05-19 13:32:00,
2013-05-19 09:42:00,81.0,-99.9,30.03,East,86,15.0,19.0,-999,-99.99,,,-99.99,,2013-05-19 13:42:00,
2013-05-19 09:52:00,81.0,-99.9,30.03,East,90,17.0,19.0,-999,-99.99,,,-99.99,,2013-05-19 13:52:00,
2013-05-19 10:02:00,81.0,-99.9,30.03,East,84,15.0,20.0,-999,-99.99,,,-99.99,,2013-05-19 14:02:00,
2013-05-19 10:11:00,81.0,-99.9,30.03,East,81,16.0,21.0,-999,-99.99,,,-99.99,,2013-05-19 14:11:00,
2013-05-19 10:21:00,81.0,-99.9,30.03,East,85,14.0,19.0,-999,-99.99,,,-99.99,,2013-05-19 14:21:00,
2013-05-19 10:32:00,81.0,-99.9,30.03,East,84,13.0,19.0,-999,-99.99,,,-99.99,,2013-05-19 14:32:00,
2013-05-19 10:42:00,81.0,-99.9,30.02,East,89,16.0,20.0,-999,-99.99,,,-99.99,,2013-05-19 14:42:00,
2013-05-19 10:52:00,82.0,-99.9,30.03,ENE,74,13.0,18.0,-999,-99.99,,,-99.99,,2013-05-19 14:52:00,
2013-05-19 11:02:00,82.0,-99.9,30.02,East,80,14.0,17.0,-999,-99.99,,,-99.99,,2013-05-19 15:02:00,
2013-05-19 11:12:00,82.0,-99.9,30.02,East,81,12.0,18.0,-999,-99.99,,,-99.99,,2013-05-19 15:12:00,
2013-05-19 11:22:00,81.0,-99.9,30.02,East,83,15.0,21.0,-999,-99.99,,,-99.99,,2013-05-19 15:22:00,
2013-05-19 11:33:00,82.0,-99.9,30.02,East,80,15.0,20.0,-999,-99.99,,,-99.99,,2013-05-19 15:33:00,
2013-05-19 11:43:00,82.0,-99.9,30.02,ENE,75,13.0,18.0,-999,-99.99,,,-99.99,,2013-05-19 15:43:00,
2013-05-19 11:53:00,82.0,-99.9,30.01,ENE,69,15.0,20.0,-999,-99.99,,,-99.99,,2013-05-19 15:53:00,
2013-05-19 12:03:00,82.0,-99.9,30.01,ENE,70,13.0,19.0,-999,-99.99,,,-99.99,,2013-05-19 16:03:00,
2013-05-19 12:13:00,82.0,-99.9,30.01,ENE,76,13.0,17.0,-999,-99.99,,,-99.99,,2013-05-19 16:13:00,
2013-05-19 12:23:00,82.0,-99.9,30.01,ENE,73,16.0,20.0,-999,-99.99,,,-99.99,,2013-05-19 16:23:00,
2013-05-19 12:33:00,82.0,-99.9,30.01,ENE,70,14.0,19.0,-999,-99.99,,,-99.99,,2013-05-19 16:33:00,
2013-05-19 12:42:00,82.0,-99.9,30.00,ENE,69,17.0,21.0,-999,-99.99,,,-99.99,,2013-05-19 16:42:00,
2013-05-19 12:53:00,82.0,-99.9,30.00,ENE,68,14.0,20.0,-999,-99.99,,,-99.99,,2013-05-19 16:53:00,
2013-05-19 13:02:00,82.0,-99.9,30.00,ENE,69,18.0,20.0,-999,-99.99,,,-99.99,,2013-05-19 17:02:00,
2013-05-19 13:12:00,82.0,-99.9,30.00,ENE,73,16.0,19.0,-999,-99.99,,,-99.99,,2013-05-19 17:12:00,
2013-05-19 13:22:00,83.0,-99.9,30.00,ENE,68,15.0,21.0,-999,-99.99,,,-99.99,,2013-05-19 17:22:00,
2013-05-19 13:32:00,82.0,-99.9,30.00,ENE,73,18.0,22.0,-999,-99.99,,,-99.99,,2013-05-19 17:32:00,
2013-05-19 13:43:00,82.0,-99.9,30.00,ENE,70,17.0,22.0,-999,-99.99,,,-99.99,,2013-05-19 17:43:00,
2013-05-19 13:52:00,82.0,-99.9,29.99,ENE,67,16.0,21.0,-999,-99.99,,,-99.99,,2013-05-19 17:52:00,
2013-05-19 14:02:00,82.0,-99.9,29.99,ENE,76,15.0,21.0,-999,-99.99,,,-99.99,,2013-05-19 18:02:00,
2013-05-19 14:12:00,82.0,-99.9,29.98,ENE,72,17.0,22.0,-999,-99.99,,,-99.99,,2013-05-19 18:12:00,
2013-05-19 14:22:00,82.0,-99.9,29.98,ENE,71,18.0,22.0,-999,-99.99,,,-99.99,,2013-05-19 18:22:00,
2013-05-19 14:32:00,82.0,-99.9,29.98,ENE,71,16.0,21.0,-999,-99.99,,,-99.99,,2013-05-19 18:32:00,
2013-05-19 14:43:00,82.0,-99.9,29.98,ENE,63,17.0,21.0,-999,-99.99,,,-99.99,,2013-05-19 18:43:00,
2013-05-19 14:53:00,82.0,-99.9,29.97,ENE,73,17.0,21.0,-999,-99.99,,,-99.99,,2013-05-19 18:53:00,
2013-05-19 15:01:00,82.0,-99.9,29.97,East,81,15.0,20.0,-999,-99.99,,,-99.99,,2013-05-19 19:01:00,
2013-05-19 15:11:00,82.0,-99.9,29.96,ENE,77,15.0,19.0,-999,-99.99,,,-99.99,,2013-05-19 19:11:00,
2013-05-19 15:22:00,82.0,-99.9,29.96,East,81,15.0,24.0,-999,-99.99,,,-99.99,,2013-05-19 19:22:00,
2013-05-19 15:32:00,81.0,-99.9,29.96,East,86,19.0,24.0,-999,-99.99,,,-99.99,,2013-05-19 19:32:00,
2013-05-19 15:42:00,82.0,-99.9,29.96,ENE,75,15.0,20.0,-999,-99.99,,,-99.99,,2013-05-19 19:42:00,
2013-05-19 15:52:00,82.0,-99.9,29.96,East,83,15.0,21.0,-999,-99.99,,,-99.99,,2013-05-19 19:52:00,
2013-05-19 16:02:00,82.0,-99.9,29.96,East,81,15.0,21.0,-999,-99.99,,,-99.99,,2013-05-19 20:02:00,
2013-05-19 16:11:00,81.0,-99.9,29.95,East,85,19.0,24.0,-999,-99.99,,,-99.99,,2013-05-19 20:11:00,
2013-05-19 16:22:00,81.0,-99.9,29.96,East,88,18.0,26.0,-999,-99.99,,,-99.99,,2013-05-19 20:22:00,
2013-05-19 16:32:00,81.0,-99.9,29.96,East,84,20.0,24.0,-999,-99.99,,,-99.99,,2013-05-19 20:32:00,
2013-05-19 16:42:00,81.0,-99.9,29.95,East,83,17.0,23.0,-999,-99.99,,,-99.99,,2013-05-19 20:42:00,
2013-05-19 16:52:00,81.0,-99.9,29.95,East,80,21.0,26.0,-999,-99.99,,,-99.99,,2013-05-19 20:52:00,
2013-05-19 17:02:00,81.0,-99.9,29.95,ENE,78,17.0,23.0,-999,-99.99,,,-99.99,,2013-05-19 21:02:00,
2013-05-19 17:11:00,81.0,-99.9,29.95,East,86,16.0,21.0,-999,-99.99,,,-99.99,,2013-05-19 21:11:00,
2013-05-19 17:22:00,82.0,-99.9,29.95,East,87,17.0,22.0,-999,-99.99,,,-99.99,,2013-05-19 21:22:00,
2013-05-19 17:32:00,81.0,-99.9,29.96,East,92,17.0,20.0,-999,-99.99,,,-99.99,,2013-05-19 21:32:00,
2013-05-19 17:43:00,81.0,-99.9,29.96,East,85,19.0,23.0,-999,-99.99,,,-99.99,,2013-05-19 21:43:00,
2013-05-19 17:53:00,81.0,-99.9,29.96,East,88,18.0,22.0,-999,-99.99,,,-99.99,,2013-05-19 21:53:00,
2013-05-19 18:03:00,81.0,-99.9,29.96,East,82,16.0,21.0,-999,-99.99,,,-99.99,,2013-05-19 22:03:00,
2013-05-19 18:12:00,81.0,-99.9,29.96,East,84,18.0,23.0,-999,-99.99,,,-99.99,,2013-05-19 22:12:00,
2013-05-19 18:23:00,81.0,-99.9,29.96,East,82,15.0,22.0,-999,-99.99,,,-99.99,,2013-05-19 22:23:00,
2013-05-19 18:33:00,81.0,-99.9,29.97,East,83,18.0,22.0,-999,-99.99,,,-99.99,,2013-05-19 22:33:00,
2013-05-19 18:43:00,81.0,-99.9,29.97,ENE,77,15.0,21.0,-999,-99.99,,,-99.99,,2013-05-19 22:43:00,
2013-05-19 18:53:00,81.0,-99.9,29.97,East,86,17.0,22.0,-999,-99.99,,,-99.99,,2013-05-19 22:53:00,
2013-05-19 19:03:00,81.0,-99.9,29.97,East,87,15.0,21.0,-999,-99.99,,,-99.99,,2013-05-19 23:03:00,
2013-05-19 19:12:00,81.0,-99.9,29.97,East,84,16.0,21.0,-999,-99.99,,,-99.99,,2013-05-19 23:12:00,
2013-05-19 19:22:00,81.0,-99.9,29.98,East,84,15.0,23.0,-999,-99.99,,,-99.99,,2013-05-19 23:22:00,
2013-05-19 19:32:00,81.0,-99.9,29.97,East,83,16.0,21.0,-999,-99.99,,,-99.99,,2013-05-19 23:32:00,
2013-05-19 19:42:00,81.0,-99.9,29.97,East,82,19.0,22.0,-999,-99.99,,,-99.99,,2013-05-19 23:42:00,
2013-05-19 19:53:00,81.0,-99.9,29.97,ENE,77,16.0,22.0,-999,-99.99,,,-99.99,,2013-05-19 23:53:00,
2013-05-19 20:02:00,81.0,-99.9,29.98,East,86,18.0,23.0,-999,-99.99,,,-99.99,,2013-05-20 00:02:00,
2013-05-19 20:12:00,81.0,-99.9,29.98,East,85,17.0,22.0,-999,-99.99,,,-99.99,,2013-05-20 00:12:00,
2013-05-19 20:22:00,81.0,-99.9,29.99,East,86,15.0,22.0,-999,-99.99,,,-99.99,,2013-05-20 00:22:00,
2013-05-19 20:32:00,81.0,-99.9,30.00,East,83,14.0,22.0,-999,-99.99,,,-99.99,,2013-05-20 00:32:00,
2013-05-19 20:42:00,80.0,-99.9,30.01,SE,141,13.0,14.0,-999,-99.99,,,-99.99,,2013-05-20 00:42:00,
2013-05-19 20:52:00,80.0,-99.9,30.01,ESE,121,12.0,14.0,-999,-99.99,,,-99.99,,2013-05-20 00:52:00,
2013-05-19 21:01:00,80.0,-99.9,30.02,SE,126,11.0,13.0,-999,-99.99,,,-99.99,,2013-05-20 01:01:00,
2013-05-19 21:11:00,81.0,-99.9,30.02,East,97,13.0,18.0,-999,-99.99,,,-99.99,,2013-05-20 01:11:00,
2013-05-19 21:22:00,80.0,-99.9,30.02,SE,127,11.0,14.0,-999,-99.99,,,-99.99,,2013-05-20 01:22:00,
2013-05-19 21:32:00,79.0,-99.9,30.03,SSE,152,11.0,19.0,-999,-99.99,,,-99.99,,2013-05-20 01:32:00,
2013-05-19 21:42:00,79.0,-99.9,30.03,SE,141,8.0,12.0,-999,-99.99,,,-99.99,,2013-05-20 01:42:00,
2013-05-19 21:52:00,80.0,-99.9,30.02,East,100,16.0,20.0,-999,-99.99,,,-99.99,,2013-05-20 01:52:00,
2013-05-19 22:02:00,81.0,-99.9,30.02,East,95,15.0,18.0,-999,-99.99,,,-99.99,,2013-05-20 02:02:00,
2013-05-19 22:12:00,81.0,-99.9,30.02,East,89,16.0,19.0,-999,-99.99,,,-99.99,,2013-05-20 02:12:00,
2013-05-19 22:22:00,81.0,-99.9,30.03,East,98,14.0,18.0,-999,-99.99,,,-99.99,,2013-05-20 02:22:00,
2013-05-19 22:32:00,81.0,-99.9,30.03,East,95,15.0,19.0,-999,-99.99,,,-99.99,,2013-05-20 02:32:00,
2013-05-19 22:42:00,81.0,-99.9,30.03,East,92,15.0,18.0,-999,-99.99,,,-99.99,,2013-05-20 02:42:00,
2013-05-19 22:52:00,81.0,-99.9,30.02,East,97,14.0,20.0,-999,-99.99,,,-99.99,,2013-05-20 02:52:00,
2013-05-19 23:02:00,81.0,-99.9,30.03,East,89,15.0,19.0,-999,-99.99,,,-99.99,,2013-05-20 03:02:00,
2013-05-19 23:12:00,81.0,-99.9,30.03,East,88,18.0,21.0,-999,-99.99,,,-99.99,,2013-05-20 03:12:00,
2013-05-19 23:22:00,81.0,-99.9,30.03,East,95,14.0,17.0,-999,-99.99,,,-99.99,,2013-05-20 03:22:00,
2013-05-19 23:33:00,81.0,-99.9,30.03,East,95,15.0,18.0,-999,-99.99,,,-99.99,,2013-05-20 03:33:00,
2013-05-19 23:43:00,81.0,-99.9,30.03,East,95,13.0,17.0,-999,-99.99,,,-99.99,,2013-05-20 03:43:00,
2013-05-19 23:53:00,81.0,-99.9,30.02,East,101,16.0,19.0,-999,-99.99,,,-99.99,,2013-05-20 03:53:00,